sensor_id;sensor_type;location;lat;lon;timestamp;P1;durP1;ratioP1;P2;durP2;ratioP2
60241;SDS011;46103;52.076;113.488;2022-09-03T00:00:05;22.55;;;10.05;;
60241;SDS011;46103;52.076;113.488;2022-09-03T00:06:42;16.13;;;8.23;;
60241;SDS011;46103;52.076;113.488;2022-09-03T00:10:02;15.48;;;8.50;;
60241;SDS011;46103;52.076;113.488;2022-09-03T00:13:16;15.75;;;8.50;;
60241;SDS011;46103;52.076;113.488;2022-09-03T00:16:25;17.45;;;9.20;;
60241;SDS011;46103;52.076;113.488;2022-09-03T00:19:33;14.00;;;8.50;;
60241;SDS011;46103;52.076;113.488;2022-09-03T00:22:47;16.00;;;9.52;;
60241;SDS011;46103;52.076;113.488;2022-09-03T00:39:12;23.98;;;10.75;;
60241;SDS011;46103;52.076;113.488;2022-09-03T00:49:30;24.52;;;13.25;;
60241;SDS011;46103;52.076;113.488;2022-09-03T01:02:30;33.30;;;14.40;;
60241;SDS011;46103;52.076;113.488;2022-09-03T01:12:40;32.65;;;14.60;;
60241;SDS011;46103;52.076;113.488;2022-09-03T01:23:02;28.42;;;12.93;;
60241;SDS011;46103;52.076;113.488;2022-09-03T01:39:51;30.38;;;12.73;;
60241;SDS011;46103;52.076;113.488;2022-09-03T01:46:25;28.98;;;12.88;;
60241;SDS011;46103;52.076;113.488;2022-09-03T01:49:46;26.40;;;12.40;;
60241;SDS011;46103;52.076;113.488;2022-09-03T02:00:13;31.98;;;12.88;;
60241;SDS011;46103;52.076;113.488;2022-09-03T02:03:20;25.77;;;12.88;;
60241;SDS011;46103;52.076;113.488;2022-09-03T02:06:28;26.20;;;12.40;;
60241;SDS011;46103;52.076;113.488;2022-09-03T02:09:34;27.75;;;12.27;;
60241;SDS011;46103;52.076;113.488;2022-09-03T02:12:38;32.30;;;13.32;;
60241;SDS011;46103;52.076;113.488;2022-09-03T02:15:45;29.08;;;11.50;;
60241;SDS011;46103;52.076;113.488;2022-09-03T02:18:53;31.10;;;11.40;;
60241;SDS011;46103;52.076;113.488;2022-09-03T02:22:01;24.67;;;11.27;;
60241;SDS011;46103;52.076;113.488;2022-09-03T02:25:06;25.80;;;11.43;;
60241;SDS011;46103;52.076;113.488;2022-09-03T02:28:10;20.13;;;10.63;;
60241;SDS011;46103;52.076;113.488;2022-09-03T02:31:21;22.95;;;9.80;;
60241;SDS011;46103;52.076;113.488;2022-09-03T02:34:25;27.67;;;11.45;;
60241;SDS011;46103;52.076;113.488;2022-09-03T02:37:32;21.77;;;10.27;;
60241;SDS011;46103;52.076;113.488;2022-09-03T02:40:37;20.85;;;10.20;;
60241;SDS011;46103;52.076;113.488;2022-09-03T02:43:44;20.30;;;9.48;;
60241;SDS011;46103;52.076;113.488;2022-09-03T02:47:07;22.50;;;9.05;;
60241;SDS011;46103;52.076;113.488;2022-09-03T02:50:11;25.23;;;9.65;;
60241;SDS011;46103;52.076;113.488;2022-09-03T02:53:15;28.05;;;10.02;;
60241;SDS011;46103;52.076;113.488;2022-09-03T02:56:19;22.50;;;9.63;;
60241;SDS011;46103;52.076;113.488;2022-09-03T02:59:28;19.55;;;9.90;;
60241;SDS011;46103;52.076;113.488;2022-09-03T03:02:33;25.55;;;10.77;;
60241;SDS011;46103;52.076;113.488;2022-09-03T03:05:47;22.45;;;9.85;;
60241;SDS011;46103;52.076;113.488;2022-09-03T03:08:53;22.33;;;10.10;;
60241;SDS011;46103;52.076;113.488;2022-09-03T03:11:57;17.27;;;8.75;;
60241;SDS011;46103;52.076;113.488;2022-09-03T03:15:01;17.38;;;8.85;;
60241;SDS011;46103;52.076;113.488;2022-09-03T03:18:05;23.75;;;8.60;;
60241;SDS011;46103;52.076;113.488;2022-09-03T03:21:11;20.73;;;9.50;;
60241;SDS011;46103;52.076;113.488;2022-09-03T03:24:19;23.92;;;8.82;;
60241;SDS011;46103;52.076;113.488;2022-09-03T03:27:22;25.60;;;8.93;;
60241;SDS011;46103;52.076;113.488;2022-09-03T03:30:26;21.20;;;8.20;;
60241;SDS011;46103;52.076;113.488;2022-09-03T03:33:30;18.20;;;8.45;;
60241;SDS011;46103;52.076;113.488;2022-09-03T03:36:34;18.33;;;7.80;;
60241;SDS011;46103;52.076;113.488;2022-09-03T03:39:38;18.75;;;8.70;;
60241;SDS011;46103;52.076;113.488;2022-09-03T03:42:42;13.90;;;6.20;;
60241;SDS011;46103;52.076;113.488;2022-09-03T03:45:56;14.70;;;6.80;;
60241;SDS011;46103;52.076;113.488;2022-09-03T03:49:01;17.45;;;6.95;;
60241;SDS011;46103;52.076;113.488;2022-09-03T03:52:06;13.75;;;7.40;;
60241;SDS011;46103;52.076;113.488;2022-09-03T03:55:09;15.00;;;6.28;;
60241;SDS011;46103;52.076;113.488;2022-09-03T03:58:17;16.92;;;6.93;;
60241;SDS011;46103;52.076;113.488;2022-09-03T04:01:24;15.23;;;7.25;;
60241;SDS011;46103;52.076;113.488;2022-09-03T04:04:29;14.52;;;6.57;;
60241;SDS011;46103;52.076;113.488;2022-09-03T04:07:33;15.77;;;6.80;;
60241;SDS011;46103;52.076;113.488;2022-09-03T04:10:37;21.05;;;7.35;;
60241;SDS011;46103;52.076;113.488;2022-09-03T04:13:41;18.30;;;7.47;;
60241;SDS011;46103;52.076;113.488;2022-09-03T04:16:46;15.85;;;7.18;;
60241;SDS011;46103;52.076;113.488;2022-09-03T04:19:50;21.80;;;5.70;;
60241;SDS011;46103;52.076;113.488;2022-09-03T04:22:54;13.50;;;5.65;;
60241;SDS011;46103;52.076;113.488;2022-09-03T04:25:58;12.10;;;4.75;;
60241;SDS011;46103;52.076;113.488;2022-09-03T04:29:03;10.00;;;4.97;;
60241;SDS011;46103;52.076;113.488;2022-09-03T04:32:08;13.17;;;4.23;;
60241;SDS011;46103;52.076;113.488;2022-09-03T04:35:31;17.67;;;6.38;;
60241;SDS011;46103;52.076;113.488;2022-09-03T04:38:39;16.48;;;5.60;;
60241;SDS011;46103;52.076;113.488;2022-09-03T04:41:44;13.00;;;5.32;;
60241;SDS011;46103;52.076;113.488;2022-09-03T04:44:51;11.88;;;4.40;;
60241;SDS011;46103;52.076;113.488;2022-09-03T04:47:55;9.73;;;4.57;;
60241;SDS011;46103;52.076;113.488;2022-09-03T04:51:08;12.07;;;4.10;;
60241;SDS011;46103;52.076;113.488;2022-09-03T04:54:16;7.03;;;3.58;;
60241;SDS011;46103;52.076;113.488;2022-09-03T04:57:21;9.30;;;3.47;;
60241;SDS011;46103;52.076;113.488;2022-09-03T05:00:26;8.48;;;3.95;;
60241;SDS011;46103;52.076;113.488;2022-09-03T05:03:29;8.73;;;4.32;;
60241;SDS011;46103;52.076;113.488;2022-09-03T05:06:34;11.73;;;4.30;;
60241;SDS011;46103;52.076;113.488;2022-09-03T05:09:38;6.82;;;3.55;;
60241;SDS011;46103;52.076;113.488;2022-09-03T05:12:43;10.25;;;3.95;;
60241;SDS011;46103;52.076;113.488;2022-09-03T05:15:47;10.50;;;3.47;;
60241;SDS011;46103;52.076;113.488;2022-09-03T05:18:54;12.10;;;3.20;;
60241;SDS011;46103;52.076;113.488;2022-09-03T05:22:01;6.15;;;3.45;;
60241;SDS011;46103;52.076;113.488;2022-09-03T05:25:10;8.05;;;3.30;;
60241;SDS011;46103;52.076;113.488;2022-09-03T05:28:14;6.05;;;3.10;;
60241;SDS011;46103;52.076;113.488;2022-09-03T05:31:19;4.85;;;2.67;;
60241;SDS011;46103;52.076;113.488;2022-09-03T05:34:27;7.85;;;3.35;;
60241;SDS011;46103;52.076;113.488;2022-09-03T05:37:31;8.48;;;3.70;;
60241;SDS011;46103;52.076;113.488;2022-09-03T05:40:35;14.48;;;4.50;;
60241;SDS011;46103;52.076;113.488;2022-09-03T05:43:39;18.60;;;4.40;;
60241;SDS011;46103;52.076;113.488;2022-09-03T05:46:43;7.75;;;3.78;;
60241;SDS011;46103;52.076;113.488;2022-09-03T05:49:46;9.63;;;4.00;;
60241;SDS011;46103;52.076;113.488;2022-09-03T05:52:52;12.85;;;4.03;;
60241;SDS011;46103;52.076;113.488;2022-09-03T05:55:56;11.27;;;3.30;;
60241;SDS011;46103;52.076;113.488;2022-09-03T05:59:05;14.70;;;4.18;;
60241;SDS011;46103;52.076;113.488;2022-09-03T06:02:11;12.85;;;3.47;;
60241;SDS011;46103;52.076;113.488;2022-09-03T06:05:15;8.35;;;3.03;;
60241;SDS011;46103;52.076;113.488;2022-09-03T06:08:21;10.32;;;3.60;;
60241;SDS011;46103;52.076;113.488;2022-09-03T06:11:24;11.13;;;3.47;;
60241;SDS011;46103;52.076;113.488;2022-09-03T06:14:33;12.82;;;3.13;;
60241;SDS011;46103;52.076;113.488;2022-09-03T06:17:37;14.57;;;3.88;;
60241;SDS011;46103;52.076;113.488;2022-09-03T06:20:41;14.38;;;4.75;;
60241;SDS011;46103;52.076;113.488;2022-09-03T06:23:49;10.95;;;4.10;;
60241;SDS011;46103;52.076;113.488;2022-09-03T06:27:00;11.90;;;3.88;;
60241;SDS011;46103;52.076;113.488;2022-09-03T06:30:04;11.15;;;3.95;;
60241;SDS011;46103;52.076;113.488;2022-09-03T06:33:09;12.63;;;3.85;;
60241;SDS011;46103;52.076;113.488;2022-09-03T06:36:14;11.80;;;3.65;;
60241;SDS011;46103;52.076;113.488;2022-09-03T06:42:23;6.80;;;2.47;;
60241;SDS011;46103;52.076;113.488;2022-09-03T06:45:28;6.03;;;2.20;;
60241;SDS011;46103;52.076;113.488;2022-09-03T06:48:33;12.07;;;3.03;;
60241;SDS011;46103;52.076;113.488;2022-09-03T06:51:38;11.63;;;2.33;;
60241;SDS011;46103;52.076;113.488;2022-09-03T06:54:42;10.88;;;2.38;;
60241;SDS011;46103;52.076;113.488;2022-09-03T06:57:47;9.68;;;2.42;;
60241;SDS011;46103;52.076;113.488;2022-09-03T07:01:00;4.90;;;1.77;;
60241;SDS011;46103;52.076;113.488;2022-09-03T07:04:15;8.15;;;2.55;;
60241;SDS011;46103;52.076;113.488;2022-09-03T07:10:24;12.82;;;3.65;;
60241;SDS011;46103;52.076;113.488;2022-09-03T07:13:30;11.68;;;2.80;;
60241;SDS011;46103;52.076;113.488;2022-09-03T07:16:35;14.23;;;4.13;;
60241;SDS011;46103;52.076;113.488;2022-09-03T07:19:39;6.43;;;2.42;;
60241;SDS011;46103;52.076;113.488;2022-09-03T07:22:43;11.18;;;3.00;;
60241;SDS011;46103;52.076;113.488;2022-09-03T07:25:51;9.18;;;2.80;;
60241;SDS011;46103;52.076;113.488;2022-09-03T07:28:57;6.50;;;2.28;;
60241;SDS011;46103;52.076;113.488;2022-09-03T07:32:02;10.85;;;2.45;;
60241;SDS011;46103;52.076;113.488;2022-09-03T07:35:07;6.60;;;2.85;;
60241;SDS011;46103;52.076;113.488;2022-09-03T07:38:11;8.45;;;2.40;;
60241;SDS011;46103;52.076;113.488;2022-09-03T07:41:20;4.03;;;2.13;;
60241;SDS011;46103;52.076;113.488;2022-09-03T07:44:30;5.05;;;2.05;;
60241;SDS011;46103;52.076;113.488;2022-09-03T07:47:35;5.57;;;2.92;;
60241;SDS011;46103;52.076;113.488;2022-09-03T07:50:38;8.23;;;3.05;;
60241;SDS011;46103;52.076;113.488;2022-09-03T07:53:44;6.30;;;2.20;;
60241;SDS011;46103;52.076;113.488;2022-09-03T07:56:49;9.88;;;2.55;;
60241;SDS011;46103;52.076;113.488;2022-09-03T07:59:53;12.02;;;2.95;;
60241;SDS011;46103;52.076;113.488;2022-09-03T08:02:57;7.22;;;2.50;;
60241;SDS011;46103;52.076;113.488;2022-09-03T08:06:08;6.10;;;2.90;;
60241;SDS011;46103;52.076;113.488;2022-09-03T08:09:12;9.63;;;2.53;;
60241;SDS011;46103;52.076;113.488;2022-09-03T08:12:16;4.95;;;1.73;;
60241;SDS011;46103;52.076;113.488;2022-09-03T08:15:20;5.22;;;3.03;;
60241;SDS011;46103;52.076;113.488;2022-09-03T08:18:24;9.63;;;3.42;;
60241;SDS011;46103;52.076;113.488;2022-09-03T08:21:31;5.72;;;2.63;;
60241;SDS011;46103;52.076;113.488;2022-09-03T08:24:35;5.25;;;2.03;;
60241;SDS011;46103;52.076;113.488;2022-09-03T08:27:39;8.40;;;2.33;;
60241;SDS011;46103;52.076;113.488;2022-09-03T08:30:43;7.82;;;3.05;;
60241;SDS011;46103;52.076;113.488;2022-09-03T08:33:48;6.93;;;2.40;;
60241;SDS011;46103;52.076;113.488;2022-09-03T08:36:53;6.35;;;2.55;;
60241;SDS011;46103;52.076;113.488;2022-09-03T08:39:58;10.40;;;3.28;;
60241;SDS011;46103;52.076;113.488;2022-09-03T08:43:14;8.13;;;3.13;;
60241;SDS011;46103;52.076;113.488;2022-09-03T08:46:31;7.22;;;2.53;;
60241;SDS011;46103;52.076;113.488;2022-09-03T08:49:44;11.10;;;2.88;;
60241;SDS011;46103;52.076;113.488;2022-09-03T08:53:16;9.38;;;2.88;;
60241;SDS011;46103;52.076;113.488;2022-09-03T08:56:26;9.68;;;3.30;;
60241;SDS011;46103;52.076;113.488;2022-09-03T08:59:32;15.93;;;3.70;;
60241;SDS011;46103;52.076;113.488;2022-09-03T09:02:52;14.50;;;3.30;;
60241;SDS011;46103;52.076;113.488;2022-09-03T09:06:32;5.80;;;2.15;;
60241;SDS011;46103;52.076;113.488;2022-09-03T09:20:05;6.47;;;1.92;;
60241;SDS011;46103;52.076;113.488;2022-09-03T09:26:42;31.05;;;3.55;;
60241;SDS011;46103;52.076;113.488;2022-09-03T09:29:48;18.33;;;2.40;;
60241;SDS011;46103;52.076;113.488;2022-09-03T09:32:53;11.60;;;2.13;;
60241;SDS011;46103;52.076;113.488;2022-09-03T09:36:02;11.35;;;2.55;;
60241;SDS011;46103;52.076;113.488;2022-09-03T09:39:10;6.40;;;2.15;;
60241;SDS011;46103;52.076;113.488;2022-09-03T09:42:19;19.23;;;2.45;;
60241;SDS011;46103;52.076;113.488;2022-09-03T09:45:25;8.23;;;1.77;;
60241;SDS011;46103;52.076;113.488;2022-09-03T09:48:29;10.43;;;2.10;;
60241;SDS011;46103;52.076;113.488;2022-09-03T09:51:36;16.20;;;1.67;;
60241;SDS011;46103;52.076;113.488;2022-09-03T09:54:41;8.35;;;1.58;;
60241;SDS011;46103;52.076;113.488;2022-09-03T09:57:48;11.23;;;1.75;;
60241;SDS011;46103;52.076;113.488;2022-09-03T10:00:56;4.32;;;1.40;;
60241;SDS011;46103;52.076;113.488;2022-09-03T10:04:10;5.10;;;1.70;;
60241;SDS011;46103;52.076;113.488;2022-09-03T10:07:25;12.32;;;2.00;;
60241;SDS011;46103;52.076;113.488;2022-09-03T10:10:35;12.10;;;1.55;;
60241;SDS011;46103;52.076;113.488;2022-09-03T10:13:46;3.92;;;1.42;;
60241;SDS011;46103;52.076;113.488;2022-09-03T10:17:17;8.20;;;1.30;;
60241;SDS011;46103;52.076;113.488;2022-09-03T10:24:31;3.15;;;1.08;;
60241;SDS011;46103;52.076;113.488;2022-09-03T10:27:41;10.38;;;1.95;;
60241;SDS011;46103;52.076;113.488;2022-09-03T10:30:54;15.38;;;2.13;;
60241;SDS011;46103;52.076;113.488;2022-09-03T10:34:02;18.27;;;2.25;;
60241;SDS011;46103;52.076;113.488;2022-09-03T10:37:49;8.45;;;1.95;;
60241;SDS011;46103;52.076;113.488;2022-09-03T10:44:43;9.07;;;2.78;;
60241;SDS011;46103;52.076;113.488;2022-09-03T10:48:02;10.85;;;4.47;;
60241;SDS011;46103;52.076;113.488;2022-09-03T10:51:26;8.90;;;4.00;;
60241;SDS011;46103;52.076;113.488;2022-09-03T10:57:55;7.85;;;3.25;;
60241;SDS011;46103;52.076;113.488;2022-09-03T11:01:12;9.52;;;3.30;;
60241;SDS011;46103;52.076;113.488;2022-09-03T11:07:31;4.63;;;2.90;;
60241;SDS011;46103;52.076;113.488;2022-09-03T11:10:44;7.63;;;3.42;;
60241;SDS011;46103;52.076;113.488;2022-09-03T11:13:56;9.05;;;4.38;;
60241;SDS011;46103;52.076;113.488;2022-09-03T11:17:11;8.57;;;3.90;;
60241;SDS011;46103;52.076;113.488;2022-09-03T11:20:24;6.80;;;4.38;;
60241;SDS011;46103;52.076;113.488;2022-09-03T11:23:28;6.22;;;3.72;;
60241;SDS011;46103;52.076;113.488;2022-09-03T11:26:38;6.78;;;4.13;;
60241;SDS011;46103;52.076;113.488;2022-09-03T11:30:21;6.18;;;3.53;;
60241;SDS011;46103;52.076;113.488;2022-09-03T11:33:24;8.38;;;3.40;;
60241;SDS011;46103;52.076;113.488;2022-09-03T11:36:31;8.73;;;3.58;;
60241;SDS011;46103;52.076;113.488;2022-09-03T11:39:38;6.35;;;4.22;;
60241;SDS011;46103;52.076;113.488;2022-09-03T11:42:42;6.95;;;4.00;;
60241;SDS011;46103;52.076;113.488;2022-09-03T11:45:48;8.45;;;3.67;;
60241;SDS011;46103;52.076;113.488;2022-09-03T11:48:53;7.68;;;3.70;;
60241;SDS011;46103;52.076;113.488;2022-09-03T11:52:11;7.75;;;3.53;;
60241;SDS011;46103;52.076;113.488;2022-09-03T11:55:25;6.75;;;3.72;;
60241;SDS011;46103;52.076;113.488;2022-09-03T11:58:45;6.13;;;3.88;;
60241;SDS011;46103;52.076;113.488;2022-09-03T12:08:51;8.52;;;4.47;;
60241;SDS011;46103;52.076;113.488;2022-09-03T12:20:09;8.35;;;4.07;;
60241;SDS011;46103;52.076;113.488;2022-09-03T12:22:47;12.10;;;5.30;;
60241;SDS011;46103;52.076;113.488;2022-09-03T12:25:51;11.00;;;4.45;;
60241;SDS011;46103;52.076;113.488;2022-09-03T12:28:56;8.95;;;4.00;;
60241;SDS011;46103;52.076;113.488;2022-09-03T12:32:06;12.73;;;4.47;;
60241;SDS011;46103;52.076;113.488;2022-09-03T12:35:15;14.68;;;6.55;;
60241;SDS011;46103;52.076;113.488;2022-09-03T12:38:40;14.68;;;7.07;;
60241;SDS011;46103;52.076;113.488;2022-09-03T12:42:04;13.13;;;7.45;;
60241;SDS011;46103;52.076;113.488;2022-09-03T12:45:10;10.23;;;5.28;;
60241;SDS011;46103;52.076;113.488;2022-09-03T12:48:18;10.32;;;5.65;;
60241;SDS011;46103;52.076;113.488;2022-09-03T12:51:23;13.20;;;5.97;;
60241;SDS011;46103;52.076;113.488;2022-09-03T12:55:00;12.20;;;5.78;;
60241;SDS011;46103;52.076;113.488;2022-09-03T12:58:11;9.38;;;4.70;;
60241;SDS011;46103;52.076;113.488;2022-09-03T13:01:28;12.20;;;6.18;;
60241;SDS011;46103;52.076;113.488;2022-09-03T13:04:36;11.73;;;5.65;;
60241;SDS011;46103;52.076;113.488;2022-09-03T13:07:42;6.38;;;3.08;;
60241;SDS011;46103;52.076;113.488;2022-09-03T13:10:54;6.53;;;2.90;;
60241;SDS011;46103;52.076;113.488;2022-09-03T13:14:01;4.78;;;2.95;;
60241;SDS011;46103;52.076;113.488;2022-09-03T13:21:05;6.47;;;3.00;;
60241;SDS011;46103;52.076;113.488;2022-09-03T13:31:00;6.05;;;2.90;;
60241;SDS011;46103;52.076;113.488;2022-09-03T13:38:24;5.40;;;2.45;;
60241;SDS011;46103;52.076;113.488;2022-09-03T13:48:49;4.45;;;1.60;;
60241;SDS011;46103;52.076;113.488;2022-09-03T13:51:54;2.90;;;1.48;;
60241;SDS011;46103;52.076;113.488;2022-09-03T13:55:07;2.03;;;1.20;;
60241;SDS011;46103;52.076;113.488;2022-09-03T14:01:52;1.63;;;0.68;;
60241;SDS011;46103;52.076;113.488;2022-09-03T14:05:06;1.48;;;0.60;;
60241;SDS011;46103;52.076;113.488;2022-09-03T14:11:53;0.68;;;0.30;;
60241;SDS011;46103;52.076;113.488;2022-09-03T14:25:22;1.17;;;0.40;;
60241;SDS011;46103;52.076;113.488;2022-09-03T14:28:36;1.58;;;0.40;;
60241;SDS011;46103;52.076;113.488;2022-09-03T14:35:22;0.95;;;0.40;;
60241;SDS011;46103;52.076;113.488;2022-09-03T14:38:50;0.88;;;0.30;;
60241;SDS011;46103;52.076;113.488;2022-09-03T14:42:12;1.33;;;0.30;;
60241;SDS011;46103;52.076;113.488;2022-09-03T14:49:18;1.08;;;0.30;;
60241;SDS011;46103;52.076;113.488;2022-09-03T15:02:55;1.02;;;0.35;;
60241;SDS011;46103;52.076;113.488;2022-09-03T15:06:40;0.32;;;0.20;;
60241;SDS011;46103;52.076;113.488;2022-09-03T15:09:59;0.38;;;0.22;;
60241;SDS011;46103;52.076;113.488;2022-09-03T15:13:13;0.30;;;0.20;;
60241;SDS011;46103;52.076;113.488;2022-09-03T15:16:27;1.55;;;0.40;;
60241;SDS011;46103;52.076;113.488;2022-09-03T15:29:51;0.50;;;0.20;;
60241;SDS011;46103;52.076;113.488;2022-09-03T15:36:40;0.40;;;0.35;;
60241;SDS011;46103;52.076;113.488;2022-09-03T15:39:46;1.27;;;0.30;;
60241;SDS011;46103;52.076;113.488;2022-09-03T15:56:38;0.22;;;0.22;;
60241;SDS011;46103;52.076;113.488;2022-09-03T16:03:06;0.30;;;0.25;;
60241;SDS011;46103;52.076;113.488;2022-09-03T16:13:38;0.70;;;0.28;;
60241;SDS011;46103;52.076;113.488;2022-09-03T16:20:00;0.22;;;0.20;;
60241;SDS011;46103;52.076;113.488;2022-09-03T16:23:15;0.55;;;0.30;;
60241;SDS011;46103;52.076;113.488;2022-09-03T16:29:29;0.73;;;0.40;;
60241;SDS011;46103;52.076;113.488;2022-09-03T16:32:36;0.30;;;0.22;;
60241;SDS011;46103;52.076;113.488;2022-09-03T16:39:24;0.30;;;0.30;;
60241;SDS011;46103;52.076;113.488;2022-09-03T16:42:48;1.15;;;0.22;;
60241;SDS011;46103;52.076;113.488;2022-09-03T16:46:11;0.50;;;0.30;;
60241;SDS011;46103;52.076;113.488;2022-09-03T16:52:31;1.10;;;0.40;;
60241;SDS011;46103;52.076;113.488;2022-09-03T17:02:37;2.92;;;0.60;;
60241;SDS011;46103;52.076;113.488;2022-09-03T17:13:19;0.50;;;0.30;;
60241;SDS011;46103;52.076;113.488;2022-09-03T17:17:16;0.90;;;0.52;;
60241;SDS011;46103;52.076;113.488;2022-09-03T17:20:36;1.35;;;0.50;;
60241;SDS011;46103;52.076;113.488;2022-09-03T17:30:18;0.95;;;0.50;;
60241;SDS011;46103;52.076;113.488;2022-09-03T17:37:06;0.88;;;0.60;;
60241;SDS011;46103;52.076;113.488;2022-09-03T17:43:44;1.08;;;0.80;;
60241;SDS011;46103;52.076;113.488;2022-09-03T17:50:31;1.33;;;0.88;;
60241;SDS011;46103;52.076;113.488;2022-09-03T18:00:23;0.90;;;0.60;;
60241;SDS011;46103;52.076;113.488;2022-09-03T18:03:43;1.52;;;0.68;;
60241;SDS011;46103;52.076;113.488;2022-09-03T18:07:15;1.20;;;1.00;;
60241;SDS011;46103;52.076;113.488;2022-09-03T18:17:36;1.23;;;0.85;;
60241;SDS011;46103;52.076;113.488;2022-09-03T18:20:48;1.50;;;0.90;;
60241;SDS011;46103;52.076;113.488;2022-09-03T18:24:40;2.03;;;1.08;;
60241;SDS011;46103;52.076;113.488;2022-09-03T18:28:08;1.00;;;0.70;;
60241;SDS011;46103;52.076;113.488;2022-09-03T18:31:33;1.48;;;0.88;;
60241;SDS011;46103;52.076;113.488;2022-09-03T18:34:55;1.63;;;0.90;;
60241;SDS011;46103;52.076;113.488;2022-09-03T18:38:31;1.88;;;0.95;;
60241;SDS011;46103;52.076;113.488;2022-09-03T18:49:35;1.33;;;1.02;;
60241;SDS011;46103;52.076;113.488;2022-09-03T18:53:33;2.08;;;0.85;;
60241;SDS011;46103;52.076;113.488;2022-09-03T18:57:00;1.80;;;1.00;;
60241;SDS011;46103;52.076;113.488;2022-09-03T19:00:34;4.75;;;1.40;;
60241;SDS011;46103;52.076;113.488;2022-09-03T19:04:10;2.73;;;1.53;;
60241;SDS011;46103;52.076;113.488;2022-09-03T19:07:46;1.92;;;1.30;;
60241;SDS011;46103;52.076;113.488;2022-09-03T19:11:27;1.90;;;1.20;;
60241;SDS011;46103;52.076;113.488;2022-09-03T19:22:19;1.65;;;1.25;;
60241;SDS011;46103;52.076;113.488;2022-09-03T19:25:51;1.58;;;1.17;;
60241;SDS011;46103;52.076;113.488;2022-09-03T19:44:48;1.30;;;0.90;;
60241;SDS011;46103;52.076;113.488;2022-09-03T19:48:30;2.53;;;1.38;;
60241;SDS011;46103;52.076;113.488;2022-09-03T19:55:44;1.23;;;0.90;;
60241;SDS011;46103;52.076;113.488;2022-09-03T19:59:20;1.92;;;1.20;;
60241;SDS011;46103;52.076;113.488;2022-09-03T20:02:46;1.67;;;1.00;;
60241;SDS011;46103;52.076;113.488;2022-09-03T20:06:10;1.52;;;1.00;;
60241;SDS011;46103;52.076;113.488;2022-09-03T20:09:33;3.08;;;1.20;;
60241;SDS011;46103;52.076;113.488;2022-09-03T20:16:18;1.45;;;1.00;;
60241;SDS011;46103;52.076;113.488;2022-09-03T20:33:17;2.10;;;1.30;;
60241;SDS011;46103;52.076;113.488;2022-09-03T20:36:42;1.83;;;1.10;;
60241;SDS011;46103;52.076;113.488;2022-09-03T20:50:01;1.85;;;1.15;;
60241;SDS011;46103;52.076;113.488;2022-09-03T20:59:46;1.30;;;0.93;;
60241;SDS011;46103;52.076;113.488;2022-09-03T21:06:41;1.58;;;1.08;;
60241;SDS011;46103;52.076;113.488;2022-09-03T21:23:20;1.50;;;0.90;;
60241;SDS011;46103;52.076;113.488;2022-09-03T21:26:31;1.30;;;0.90;;
60241;SDS011;46103;52.076;113.488;2022-09-03T21:33:05;1.50;;;0.95;;
60241;SDS011;46103;52.076;113.488;2022-09-03T21:36:15;1.48;;;0.95;;
60241;SDS011;46103;52.076;113.488;2022-09-03T21:39:31;1.52;;;0.80;;
60241;SDS011;46103;52.076;113.488;2022-09-03T21:42:44;1.67;;;1.10;;
60241;SDS011;46103;52.076;113.488;2022-09-03T21:49:10;1.30;;;0.80;;
60241;SDS011;46103;52.076;113.488;2022-09-03T21:52:20;2.38;;;1.10;;
60241;SDS011;46103;52.076;113.488;2022-09-03T22:02:22;1.45;;;0.90;;
60241;SDS011;46103;52.076;113.488;2022-09-03T22:05:28;2.55;;;1.10;;
60241;SDS011;46103;52.076;113.488;2022-09-03T22:09:45;1.67;;;1.00;;
60241;SDS011;46103;52.076;113.488;2022-09-03T22:12:50;1.38;;;0.90;;
60241;SDS011;46103;52.076;113.488;2022-09-03T22:16:00;1.40;;;0.82;;
60241;SDS011;46103;52.076;113.488;2022-09-03T22:19:19;1.50;;;0.93;;
60241;SDS011;46103;52.076;113.488;2022-09-03T22:22:33;1.48;;;0.80;;
60241;SDS011;46103;52.076;113.488;2022-09-03T22:26:00;1.98;;;1.00;;
60241;SDS011;46103;52.076;113.488;2022-09-03T22:29:19;1.52;;;0.90;;
60241;SDS011;46103;52.076;113.488;2022-09-03T22:39:40;2.55;;;0.90;;
60241;SDS011;46103;52.076;113.488;2022-09-03T22:43:04;0.90;;;0.60;;
60241;SDS011;46103;52.076;113.488;2022-09-03T22:46:19;2.72;;;1.35;;
60241;SDS011;46103;52.076;113.488;2022-09-03T22:49:30;1.40;;;0.82;;
60241;SDS011;46103;52.076;113.488;2022-09-03T22:56:04;2.08;;;1.10;;
60241;SDS011;46103;52.076;113.488;2022-09-03T22:59:15;1.35;;;0.90;;
60241;SDS011;46103;52.076;113.488;2022-09-03T23:02:26;2.30;;;1.10;;
60241;SDS011;46103;52.076;113.488;2022-09-03T23:05:34;3.80;;;1.10;;
60241;SDS011;46103;52.076;113.488;2022-09-03T23:08:40;2.42;;;1.02;;
60241;SDS011;46103;52.076;113.488;2022-09-03T23:11:53;6.35;;;1.45;;
60241;SDS011;46103;52.076;113.488;2022-09-03T23:15:01;8.05;;;1.23;;
60241;SDS011;46103;52.076;113.488;2022-09-03T23:21:19;3.85;;;1.27;;
60241;SDS011;46103;52.076;113.488;2022-09-03T23:24:27;6.15;;;2.45;;
60241;SDS011;46103;52.076;113.488;2022-09-03T23:27:44;7.65;;;2.10;;
60241;SDS011;46103;52.076;113.488;2022-09-03T23:31:14;11.70;;;1.80;;
60241;SDS011;46103;52.076;113.488;2022-09-03T23:34:20;7.57;;;1.58;;
60241;SDS011;46103;52.076;113.488;2022-09-03T23:40:41;6.82;;;1.83;;
60241;SDS011;46103;52.076;113.488;2022-09-03T23:44:11;12.68;;;1.75;;
60241;SDS011;46103;52.076;113.488;2022-09-03T23:47:40;5.13;;;1.50;;
60241;SDS011;46103;52.076;113.488;2022-09-03T23:50:57;4.35;;;1.35;;
